Time;durP1;ratioP1;P1;durP2;ratioP2;P2;SDS_P1;SDS_P2;PMS_P1;PMS_P2;Temp;Humidity;BMP_temperature;BMP_pressure;BME280_temperature;BME280_humidity;BME280_pressure;Samples;Min_cycle;Max_cycle;Signal;HPM_P1;HPM_P2
2022/08/28 00:00:33;;;;;;;9.80;2.63;;;12.40;99.90;;;;;;5035117;28;20444;-69
2022/08/28 00:02:59;;;;;;;9.13;3.00;;;12.40;99.90;;;;;;5034923;28;20089;-69
2022/08/28 00:05:27;;;;;;;9.90;2.50;;;12.40;99.90;;;;;;5053284;28;20106;-69
2022/08/28 00:07:53;;;;;;;7.25;2.40;;;12.40;99.90;;;;;;5034810;28;20527;-71
2022/08/28 00:10:20;;;;;;;6.85;2.75;;;12.50;99.90;;;;;;5034914;28;20049;-69
2022/08/28 00:12:48;;;;;;;7.82;2.08;;;12.30;99.90;;;;;;5052469;28;20075;-71
2022/08/28 00:15:20;;;;;;;7.13;2.17;;;12.30;99.90;;;;;;5052141;28;20511;-70
2022/08/28 00:17:47;;;;;;;6.85;2.67;;;12.20;99.90;;;;;;5054137;28;20099;-70
2022/08/28 00:20:14;;;;;;;7.60;2.60;;;12.20;99.90;;;;;;5051894;28;20044;-70
2022/08/28 00:22:41;;;;;;;7.57;2.55;;;12.20;99.90;;;;;;5052594;28;20045;-68
2022/08/28 00:25:09;;;;;;;8.02;2.13;;;12.20;99.90;;;;;;5017609;28;20056;-70
2022/08/28 00:27:53;;;;;;;9.02;2.65;;;12.10;99.90;;;;;;5035238;28;20049;-69
2022/08/28 00:30:25;;;;;;;8.98;2.70;;;12.10;99.90;;;;;;5051858;28;20595;-70
2022/08/28 00:32:53;;;;;;;4.05;2.00;;;12.10;99.90;;;;;;5052269;28;20131;-72
2022/08/28 00:35:20;;;;;;;5.65;1.60;;;12.20;99.90;;;;;;5051903;28;20052;-69
2022/08/28 00:37:46;;;;;;;6.53;1.90;;;12.00;99.90;;;;;;5052829;28;20150;-71
2022/08/28 00:40:14;;;;;;;5.28;1.95;;;12.00;99.90;;;;;;5051762;28;20497;-70
2022/08/28 00:42:41;;;;;;;9.20;2.30;;;12.00;99.90;;;;;;5052636;28;20053;-70
2022/08/28 00:45:07;;;;;;;11.38;2.85;;;12.00;99.90;;;;;;5051466;28;20121;-70
2022/08/28 00:47:33;;;;;;;9.80;2.92;;;11.90;99.90;;;;;;5051797;28;20178;-70
2022/08/28 00:50:01;;;;;;;7.78;2.70;;;11.90;99.90;;;;;;5051663;28;20037;-69
2022/08/28 00:52:27;;;;;;;10.73;2.80;;;11.80;99.90;;;;;;5052102;28;20164;-71
2022/08/28 00:54:58;;;;;;;10.50;2.67;;;11.80;99.90;;;;;;5033600;28;20279;-71
2022/08/28 00:57:28;;;;;;;6.18;2.00;;;11.70;99.90;;;;;;5051473;28;20072;-70
2022/08/28 00:59:53;;;;;;;6.60;2.38;;;11.60;99.90;;;;;;5051077;28;20884;-70
2022/08/28 01:02:20;;;;;;;6.78;2.50;;;11.70;99.90;;;;;;5052326;28;20103;-70
2022/08/28 01:04:47;;;;;;;6.30;2.60;;;11.70;99.90;;;;;;5033230;28;20123;-70
2022/08/28 01:07:14;;;;;;;5.97;2.42;;;11.60;99.90;;;;;;5050916;28;20140;-70
2022/08/28 01:09:49;;;;;;;8.45;2.63;;;11.60;99.90;;;;;;5051210;28;20570;-70
2022/08/28 01:12:20;;;;;;;2.22;0.93;;;11.60;99.90;;;;;;5069716;28;20579;-70
2022/08/28 01:14:49;;;;;;;3.70;1.55;;;11.50;99.90;;;;;;5070897;28;20099;-70
2022/08/28 01:17:16;;;;;;;3.88;1.67;;;11.50;99.90;;;;;;5052862;28;20052;-69
2022/08/28 01:19:46;;;;;;;5.97;2.00;;;11.50;99.90;;;;;;5070989;28;20544;-69
2022/08/28 01:22:29;;;;;;;8.18;1.92;;;11.40;99.90;;;;;;5068863;28;20040;-72
2022/08/28 01:24:59;;;;;;;6.38;1.90;;;11.40;99.90;;;;;;5070486;28;20090;-69
2022/08/28 01:27:25;;;;;;;7.43;2.03;;;11.40;99.90;;;;;;5070658;28;20084;-70
2022/08/28 01:29:51;;;;;;;6.90;1.67;;;11.30;99.90;;;;;;5070694;28;20083;-70
2022/08/28 01:32:27;;;;;;;4.10;1.30;;;11.40;99.90;;;;;;5069133;28;20144;-69
2022/08/28 01:34:53;;;;;;;8.32;1.80;;;11.20;99.90;;;;;;5070542;28;20703;-69
2022/08/28 01:37:18;;;;;;;7.15;2.55;;;11.20;99.90;;;;;;5070504;28;20084;-70
2022/08/28 01:39:44;;;;;;;6.97;2.28;;;11.20;99.90;;;;;;5051876;28;20084;-70
2022/08/28 01:42:10;;;;;;;5.75;2.28;;;11.20;99.90;;;;;;5067908;28;20054;-69
2022/08/28 01:44:35;;;;;;;9.07;2.45;;;11.20;99.90;;;;;;5069455;28;20040;-70
2022/08/28 01:47:01;;;;;;;5.75;1.80;;;11.20;99.90;;;;;;5051089;28;20047;-68
2022/08/28 01:49:28;;;;;;;6.38;2.13;;;11.20;99.90;;;;;;5068236;28;20036;-70
2022/08/28 01:51:54;;;;;;;6.72;2.13;;;11.10;99.90;;;;;;5069397;28;20507;-71
2022/08/28 01:54:20;;;;;;;8.35;2.67;;;11.10;99.90;;;;;;5032762;28;20134;-69
2022/08/28 01:56:46;;;;;;;7.93;2.22;;;11.00;99.90;;;;;;5069474;28;20551;-69
2022/08/28 01:59:13;;;;;;;7.70;2.90;;;11.00;99.90;;;;;;5069190;28;20043;-69
2022/08/28 02:01:41;;;;;;;11.30;2.63;;;11.00;99.90;;;;;;5045789;28;20070;-70
2022/08/28 02:04:07;;;;;;;7.47;2.80;;;11.00;99.90;;;;;;5057793;28;20097;-70
2022/08/28 02:06:33;;;;;;;7.45;2.60;;;10.90;99.90;;;;;;5069602;28;20036;-69
2022/08/28 02:08:59;;;;;;;10.13;2.63;;;11.20;99.90;;;;;;5051600;28;20044;-69
2022/08/28 02:11:26;;;;;;;6.65;2.50;;;10.80;99.90;;;;;;5051988;28;20059;-70
2022/08/28 02:13:53;;;;;;;6.78;2.80;;;10.70;99.90;;;;;;5061207;28;20056;-69
2022/08/28 02:16:19;;;;;;;7.18;2.85;;;10.70;99.90;;;;;;5089139;28;20483;-69
2022/08/28 02:18:45;;;;;;;12.27;2.88;;;10.70;99.90;;;;;;5066200;28;20053;-69
2022/08/28 02:21:12;;;;;;;7.18;2.10;;;10.60;99.90;;;;;;5043366;28;20057;-70
2022/08/28 02:23:40;;;;;;;7.80;2.92;;;10.80;99.90;;;;;;5049716;28;20102;-70
2022/08/28 02:26:06;;;;;;;11.02;2.70;;;10.60;99.90;;;;;;5050953;28;20049;-69
2022/08/28 02:28:32;;;;;;;7.43;2.42;;;10.60;99.90;;;;;;5060659;28;20040;-69
2022/08/28 02:30:58;;;;;;;10.90;2.97;;;10.60;99.90;;;;;;5069286;28;20097;-70
2022/08/28 02:33:24;;;;;;;7.82;2.90;;;10.50;99.90;;;;;;5069178;28;20044;-69
2022/08/28 02:35:49;;;;;;;8.18;2.88;;;10.50;99.90;;;;;;5068977;28;20037;-70
2022/08/28 02:38:16;;;;;;;11.13;3.10;;;10.50;99.90;;;;;;5068137;28;20057;-68
2022/08/28 02:40:42;;;;;;;10.75;2.90;;;10.50;99.90;;;;;;5068646;28;20119;-69
2022/08/28 02:43:07;;;;;;;10.57;3.03;;;10.50;99.90;;;;;;5068506;28;20040;-68
2022/08/28 02:45:34;;;;;;;11.27;3.00;;;10.90;99.90;;;;;;5058958;28;20052;-69
2022/08/28 02:48:00;;;;;;;6.20;2.80;;;10.60;99.90;;;;;;5050964;28;20041;-69
2022/08/28 02:50:26;;;;;;;6.63;2.78;;;10.50;99.90;;;;;;5066418;28;20060;-69
2022/08/28 02:52:52;;;;;;;7.47;2.88;;;10.50;99.90;;;;;;5069073;28;20129;-70
2022/08/28 02:55:19;;;;;;;7.22;2.83;;;10.50;99.90;;;;;;5050959;28;20088;-69
2022/08/28 02:57:46;;;;;;;6.50;2.40;;;10.40;99.90;;;;;;5068385;28;20036;-72
2022/08/28 03:00:15;;;;;;;5.90;2.25;;;10.40;99.90;;;;;;5065126;28;20123;-69
2022/08/28 03:02:44;;;;;;;7.40;2.13;;;10.30;99.90;;;;;;5044609;28;20148;-70
2022/08/28 03:05:11;;;;;;;9.15;2.38;;;10.30;99.90;;;;;;5053634;28;20044;-70
2022/08/28 03:07:37;;;;;;;6.43;2.20;;;10.20;99.90;;;;;;5053069;28;20048;-69
2022/08/28 03:10:05;;;;;;;4.50;2.00;;;10.20;99.90;;;;;;5035709;28;20044;-69
2022/08/28 03:12:32;;;;;;;5.82;1.95;;;10.20;99.90;;;;;;5064784;28;20044;-69
2022/08/28 03:14:58;;;;;;;5.85;1.83;;;10.10;99.90;;;;;;5065361;28;20036;-70
2022/08/28 03:17:24;;;;;;;6.20;2.70;;;10.10;99.90;;;;;;5054889;28;20059;-69
2022/08/28 03:19:50;;;;;;;5.22;2.38;;;10.10;99.90;;;;;;5061746;28;20116;-69
2022/08/28 03:23:25;;;;;;;6.50;2.38;;;10.10;99.90;;;;;;5067427;28;20131;-69
2022/08/28 03:25:08;;;;;;;7.72;2.60;;;10.10;99.90;;;;;;5072385;28;20055;-69
2022/08/28 03:27:34;;;;;;;8.18;2.58;;;10.00;99.90;;;;;;5064259;28;20072;-69
2022/08/28 03:30:01;;;;;;;6.68;2.50;;;10.00;99.90;;;;;;5052683;28;20161;-69
2022/08/28 03:32:27;;;;;;;6.45;2.40;;;10.00;99.90;;;;;;5059697;28;20056;-69
2022/08/28 03:34:53;;;;;;;5.00;2.50;;;9.90;99.90;;;;;;5052703;28;20063;-71
2022/08/28 03:37:19;;;;;;;4.63;2.47;;;9.90;99.90;;;;;;5054091;28;20051;-70
2022/08/28 03:39:45;;;;;;;6.45;2.75;;;10.00;99.90;;;;;;5072031;28;20048;-69
2022/08/28 03:42:11;;;;;;;6.25;2.42;;;9.80;99.90;;;;;;5071976;28;20037;-69
2022/08/28 03:44:38;;;;;;;7.30;2.40;;;9.80;99.90;;;;;;5052554;28;20048;-70
2022/08/28 03:47:04;;;;;;;4.43;2.38;;;9.80;99.90;;;;;;5072047;28;20123;-69
2022/08/28 03:49:30;;;;;;;11.80;2.88;;;9.70;99.90;;;;;;5072077;28;20044;-69
2022/08/28 03:51:56;;;;;;;8.02;2.50;;;9.80;99.90;;;;;;5052308;28;20434;-69
2022/08/28 03:54:23;;;;;;;7.22;2.53;;;9.70;99.90;;;;;;5071713;28;20044;-69
2022/08/28 03:56:50;;;;;;;4.75;2.80;;;9.70;99.90;;;;;;5071685;28;20040;-70
2022/08/28 03:59:17;;;;;;;6.15;2.55;;;9.80;99.90;;;;;;5071640;28;20044;-69
2022/08/28 04:01:43;;;;;;;7.28;2.90;;;9.70;99.90;;;;;;5052131;28;20044;-69
2022/08/28 04:04:08;;;;;;;7.65;2.45;;;9.80;99.90;;;;;;5071624;28;20044;-69
2022/08/28 04:06:34;;;;;;;6.07;2.38;;;9.80;99.90;;;;;;5053399;28;20052;-69
2022/08/28 04:09:01;;;;;;;7.82;2.40;;;9.80;99.90;;;;;;5070575;28;20051;-69
2022/08/28 04:11:27;;;;;;;7.80;2.70;;;9.70;99.90;;;;;;5058499;28;20041;-68
2022/08/28 04:13:52;;;;;;;8.50;3.25;;;9.80;99.90;;;;;;5064868;28;20097;-68
2022/08/28 04:16:18;;;;;;;9.00;3.22;;;9.80;99.90;;;;;;5051583;28;20045;-68
2022/08/28 04:18:47;;;;;;;5.90;2.25;;;9.80;99.90;;;;;;5051781;28;20037;-69
2022/08/28 04:21:19;;;;;;;6.75;2.50;;;9.80;99.90;;;;;;5053700;28;20127;-68
2022/08/28 04:23:46;;;;;;;7.60;2.50;;;9.80;99.90;;;;;;5052060;28;20052;-69
2022/08/28 04:26:16;;;;;;;8.50;3.08;;;9.90;99.90;;;;;;5070887;28;20036;-68
2022/08/28 04:28:42;;;;;;;8.25;2.80;;;9.80;99.90;;;;;;5071324;28;20119;-69
2022/08/28 04:31:08;;;;;;;9.95;2.67;;;10.00;99.90;;;;;;5070661;28;20028;-69
2022/08/28 04:33:35;;;;;;;8.23;2.47;;;9.90;99.90;;;;;;5060268;28;20037;-68
2022/08/28 04:36:06;;;;;;;6.72;2.40;;;9.90;99.90;;;;;;5070459;28;20123;-69
2022/08/28 04:38:32;;;;;;;6.97;2.20;;;9.90;99.90;;;;;;5071132;28;20094;-69
2022/08/28 04:41:01;;;;;;;6.38;2.22;;;9.90;99.90;;;;;;5069740;28;20036;-69
2022/08/28 04:43:27;;;;;;;8.57;2.47;;;10.30;99.90;;;;;;5070791;28;20048;-71
2022/08/28 04:45:52;;;;;;;5.15;2.28;;;10.00;99.90;;;;;;5069669;28;20086;-69
2022/08/28 04:48:18;;;;;;;6.40;2.00;;;10.00;99.90;;;;;;5070312;28;20128;-69
2022/08/28 04:50:46;;;;;;;7.28;2.60;;;9.90;99.90;;;;;;5070859;28;20067;-69
2022/08/28 04:53:13;;;;;;;11.35;1.85;;;9.90;99.90;;;;;;5070177;28;20095;-67
2022/08/28 04:55:41;;;;;;;7.22;2.47;;;9.90;99.90;;;;;;5069754;28;20048;-70
2022/08/28 04:58:07;;;;;;;13.35;2.90;;;10.00;99.90;;;;;;5070676;28;20042;-71
2022/08/28 05:00:33;;;;;;;11.45;2.95;;;10.10;99.90;;;;;;5070291;28;20128;-69
2022/08/28 05:02:59;;;;;;;5.90;2.67;;;10.00;99.90;;;;;;5064154;28;20112;-69
2022/08/28 05:05:24;;;;;;;8.35;2.53;;;10.10;99.90;;;;;;5066661;28;20049;-69
2022/08/28 05:07:50;;;;;;;6.68;2.22;;;10.10;99.90;;;;;;5070224;28;20047;-69
2022/08/28 05:10:16;;;;;;;8.15;1.90;;;10.10;99.90;;;;;;5054922;28;20041;-69
2022/08/28 05:12:41;;;;;;;5.70;2.17;;;10.20;99.90;;;;;;5066705;28;20482;-68
2022/08/28 05:15:08;;;;;;;7.35;2.13;;;10.20;99.90;;;;;;5070278;28;20060;-70
2022/08/28 05:17:33;;;;;;;10.18;2.50;;;10.30;99.90;;;;;;5070233;28;20419;-69
2022/08/28 05:19:59;;;;;;;9.52;2.50;;;10.30;99.90;;;;;;5067600;28;20032;-69
2022/08/28 05:22:27;;;;;;;8.88;2.30;;;10.40;99.90;;;;;;5069639;28;20048;-69
2022/08/28 05:24:53;;;;;;;8.27;2.28;;;10.50;99.90;;;;;;5070693;28;20052;-69
2022/08/28 05:27:19;;;;;;;7.97;2.33;;;10.60;99.90;;;;;;5070799;28;20102;-69
2022/08/28 05:29:44;;;;;;;9.02;2.38;;;10.60;99.90;;;;;;5068910;28;20094;-69
2022/08/28 05:32:10;;;;;;;6.82;2.28;;;10.80;99.90;;;;;;5070099;28;20037;-69
2022/08/28 05:34:36;;;;;;;8.63;2.00;;;10.80;99.90;;;;;;5069517;28;20487;-68
2022/08/28 05:37:01;;;;;;;8.45;2.13;;;10.90;99.90;;;;;;5051667;28;20094;-69
2022/08/28 05:39:27;;;;;;;9.88;2.00;;;11.00;99.90;;;;;;5068849;28;20666;-70
2022/08/28 05:41:52;;;;;;;6.55;1.83;;;11.20;99.90;;;;;;5055955;28;20051;-70
2022/08/28 05:44:19;;;;;;;9.35;1.83;;;11.50;99.90;;;;;;5069788;28;20123;-71
2022/08/28 05:46:47;;;;;;;8.77;2.08;;;11.50;99.90;;;;;;5050810;28;20045;-71
2022/08/28 05:49:13;;;;;;;5.85;1.70;;;11.60;99.90;;;;;;5050272;28;20044;-69
2022/08/28 05:51:40;;;;;;;7.68;1.73;;;11.80;99.90;;;;;;5050763;28;20056;-68
2022/08/28 05:54:07;;;;;;;10.23;1.98;;;11.80;99.90;;;;;;5050162;28;20056;-70
2022/08/28 05:56:35;;;;;;;5.78;1.55;;;12.10;99.90;;;;;;5050124;28;20438;-70
2022/08/28 05:59:04;;;;;;;8.50;2.17;;;12.00;99.90;;;;;;5050089;28;20370;-70
2022/08/28 06:01:32;;;;;;;10.55;1.92;;;12.10;99.90;;;;;;5051253;28;20049;-71
2022/08/28 06:04:14;;;;;;;8.40;2.03;;;12.30;99.90;;;;;;5033420;28;20388;-70
2022/08/28 06:06:41;;;;;;;6.47;1.77;;;12.40;99.90;;;;;;5049454;28;20625;-70
2022/08/28 06:09:27;;;;;;;8.25;1.90;;;12.50;99.90;;;;;;5050226;28;20033;-72
2022/08/28 06:11:54;;;;;;;8.02;1.50;;;12.50;99.90;;;;;;5050722;28;20037;-70
2022/08/28 06:14:20;;;;;;;11.20;2.05;;;12.60;99.90;;;;;;5033315;28;20061;-71
2022/08/28 06:16:49;;;;;;;16.42;1.70;;;12.70;99.90;;;;;;5058226;28;20048;-71
2022/08/28 06:19:15;;;;;;;8.40;1.70;;;12.90;99.90;;;;;;5063275;28;20053;-70
2022/08/28 06:21:42;;;;;;;9.77;2.05;;;13.00;99.90;;;;;;5048759;28;20053;-70
2022/08/28 06:24:10;;;;;;;10.77;1.80;;;13.10;99.90;;;;;;5049462;28;20037;-70
2022/08/28 06:26:36;;;;;;;13.50;1.63;;;13.20;99.90;;;;;;5058853;28;20047;-70
2022/08/28 06:29:04;;;;;;;12.02;1.90;;;13.40;99.90;;;;;;5065572;28;20417;-70
2022/08/28 06:31:30;;;;;;;8.70;1.60;;;13.50;99.90;;;;;;5031817;28;20055;-70
2022/08/28 06:33:57;;;;;;;10.63;1.80;;;13.60;99.90;;;;;;5049339;28;20053;-70
2022/08/28 06:36:27;;;;;;;7.60;2.35;;;13.70;99.90;;;;;;5050804;28;20451;-70
2022/08/28 06:38:56;;;;;;;8.57;1.65;;;13.90;99.90;;;;;;5057887;28;20055;-69
2022/08/28 06:41:23;;;;;;;6.03;1.88;;;14.00;99.90;;;;;;5055678;28;20037;-71
2022/08/28 06:43:48;;;;;;;4.90;1.23;;;14.20;99.90;;;;;;5039935;28;20101;-70
2022/08/28 06:46:14;;;;;;;8.73;1.50;;;14.30;99.90;;;;;;5067759;28;20048;-70
2022/08/28 06:48:40;;;;;;;7.70;1.80;;;14.40;99.90;;;;;;5068773;28;20048;-70
2022/08/28 06:51:08;;;;;;;7.93;1.52;;;14.50;99.90;;;;;;5069057;28;20391;-70
2022/08/28 06:53:34;;;;;;;8.55;1.17;;;14.80;99.90;;;;;;5068286;28;20059;-70
2022/08/28 06:56:12;;;;;;;9.45;1.20;;;14.80;99.90;;;;;;5067190;28;20082;-69
2022/08/28 06:58:42;;;;;;;7.65;1.42;;;14.90;99.90;;;;;;5069242;28;20052;-72
2022/08/28 07:01:24;;;;;;;10.07;1.52;;;15.00;99.90;;;;;;5068712;28;20093;-70
2022/08/28 07:03:52;;;;;;;9.80;1.58;;;15.30;99.90;;;;;;5050790;28;20396;-71
2022/08/28 07:06:20;;;;;;;9.98;1.90;;;15.40;99.90;;;;;;5052782;28;20430;-72
2022/08/28 07:08:46;;;;;;;8.50;1.58;;;15.40;99.90;;;;;;5068669;28;20048;-71
2022/08/28 07:11:19;;;;;;;6.30;1.45;;;15.60;99.90;;;;;;5065681;28;20045;-75
2022/08/28 07:13:45;;;;;;;8.20;1.70;;;15.60;99.90;;;;;;5050847;28;20044;-76
2022/08/28 07:16:13;;;;;;;9.73;1.52;;;15.80;99.90;;;;;;5068557;28;20040;-73
2022/08/28 07:18:39;;;;;;;7.70;1.60;;;16.00;99.90;;;;;;5067418;28;20097;-74
2022/08/28 07:21:05;;;;;;;12.60;1.40;;;16.10;99.90;;;;;;5048994;28;20041;-71
2022/08/28 07:23:33;;;;;;;6.22;1.27;;;16.20;99.90;;;;;;5031094;28;20598;-72
2022/08/28 07:26:01;;;;;;;9.35;1.70;;;16.30;99.90;;;;;;5049725;28;20041;-70
2022/08/28 07:28:27;;;;;;;9.45;1.55;;;16.40;99.90;;;;;;5048870;28;20041;-73
2022/08/28 07:30:58;;;;;;;5.25;1.30;;;16.50;99.90;;;;;;5050202;28;20103;-71
2022/08/28 07:33:24;;;;;;;8.55;1.40;;;16.60;99.90;;;;;;5050293;28;20049;-72
2022/08/28 07:35:50;;;;;;;6.35;1.33;;;16.70;99.90;;;;;;5062946;28;20037;-73
2022/08/28 07:38:16;;;;;;;9.75;1.70;;;16.80;99.90;;;;;;5068174;28;20210;-70
2022/08/28 07:40:41;;;;;;;5.50;1.30;;;16.90;99.90;;;;;;5066560;28;20052;-72
2022/08/28 07:46:06;;;;;;;7.22;1.20;;;17.10;99.90;;;;;;5052749;28;20456;-71
2022/08/28 07:48:34;;;;;;;10.90;1.70;;;17.20;99.90;;;;;;5053506;28;20403;-72
2022/08/28 07:51:00;;;;;;;6.43;1.30;;;17.30;99.90;;;;;;5052508;28;20386;-73
2022/08/28 07:53:26;;;;;;;7.22;1.40;;;17.40;99.90;;;;;;5053349;28;20056;-71
2022/08/28 07:55:52;;;;;;;8.15;1.90;;;17.50;99.90;;;;;;5051817;28;20055;-70
2022/08/28 07:58:19;;;;;;;7.35;1.40;;;17.60;99.90;;;;;;5052525;28;20041;-72
2022/08/28 08:00:45;;;;;;;7.75;1.67;;;17.60;99.90;;;;;;5063239;28;20044;-70
2022/08/28 08:03:11;;;;;;;9.70;1.65;;;17.60;99.90;;;;;;5071456;28;20072;-71
2022/08/28 08:05:36;;;;;;;8.60;1.42;;;17.60;99.90;;;;;;5071022;28;20075;-72
2022/08/28 08:08:03;;;;;;;6.93;1.38;;;17.80;99.90;;;;;;5071615;28;20048;-75
2022/08/28 08:10:28;;;;;;;6.15;1.55;;;18.10;99.90;;;;;;5036818;28;20094;-75
2022/08/28 08:12:54;;;;;;;8.93;1.73;;;18.40;99.90;;;;;;5052117;28;20049;-80
2022/08/28 08:15:20;;;;;;;7.07;1.25;;;18.60;99.90;;;;;;5034151;28;20465;-73
2022/08/28 08:17:45;;;;;;;5.93;1.40;;;18.70;99.90;;;;;;5053139;28;20040;-72
2022/08/28 08:20:11;;;;;;;13.13;1.83;;;19.00;99.90;;;;;;5067569;28;20048;-75
2022/08/28 08:22:37;;;;;;;7.32;1.90;;;19.30;99.90;;;;;;5071765;28;20056;-76
2022/08/28 08:25:04;;;;;;;9.05;1.65;;;19.30;99.90;;;;;;5067046;28;20094;-72
2022/08/28 08:27:31;;;;;;;7.07;2.28;;;19.40;99.90;;;;;;5091766;28;20044;-73
2022/08/28 08:29:57;;;;;;;5.22;1.10;;;19.60;99.90;;;;;;5078460;28;20496;-72
2022/08/28 08:32:22;;;;;;;8.73;1.10;;;19.60;99.90;;;;;;5071819;28;20036;-72
2022/08/28 08:34:52;;;;;;;7.10;1.38;;;19.80;99.90;;;;;;5071708;28;20048;-72
2022/08/28 08:37:17;;;;;;;7.18;1.35;;;19.90;99.90;;;;;;5071806;28;20499;-73
2022/08/28 08:39:43;;;;;;;9.98;1.40;;;19.90;99.90;;;;;;5071569;28;20044;-73
2022/08/28 08:42:24;;;;;;;7.70;1.50;;;20.00;99.90;;;;;;5067074;28;20070;-75
2022/08/28 08:44:51;;;;;;;9.30;2.30;;;19.80;99.90;;;;;;5073725;28;20505;-73
2022/08/28 08:47:39;;;;;;;8.65;2.10;;;19.80;99.90;;;;;;5091797;28;20039;-71
2022/08/28 08:50:20;;;;;;;14.60;2.35;;;19.80;99.90;;;;;;5033427;28;20045;-73
2022/08/28 08:53:11;;;;;;;5.13;1.38;;;20.00;99.90;;;;;;5051280;28;20059;-72
2022/08/28 08:55:54;;;;;;;9.32;1.52;;;20.10;99.90;;;;;;5049967;28;20045;-73
2022/08/28 08:58:27;;;;;;;5.68;1.30;;;20.50;99.90;;;;;;5051659;28;20558;-76
2022/08/28 09:00:56;;;;;;;4.75;1.23;;;20.60;99.90;;;;;;5051047;28;20045;-73
2022/08/28 09:03:48;;;;;;;7.40;1.55;;;20.50;99.90;;;;;;5059175;28;20101;-73
2022/08/28 09:06:25;;;;;;;6.38;1.42;;;20.40;99.90;;;;;;5052229;28;20055;-74
2022/08/28 09:08:57;;;;;;;10.25;1.73;;;20.40;99.90;;;;;;5032908;28;20579;-71
2022/08/28 09:11:53;;;;;;;12.63;1.70;;;20.70;99.90;;;;;;5050950;28;20124;-73
2022/08/28 09:14:36;;;;;;;7.63;2.05;;;21.00;99.90;;;;;;5050873;28;20041;-72
2022/08/28 09:17:05;;;;;;;6.65;1.52;;;20.80;99.90;;;;;;5051257;28;20412;-71
2022/08/28 09:19:31;;;;;;;6.63;2.35;;;20.70;99.90;;;;;;5052078;28;20045;-72
2022/08/28 09:21:57;;;;;;;5.30;1.42;;;20.70;99.90;;;;;;5032915;28;20373;-72
2022/08/28 09:24:32;;;;;;;5.18;1.40;;;20.80;99.90;;;;;;5066086;28;20069;-69
2022/08/28 09:27:02;;;;;;;;;;;20.80;99.90;;;;;;5069063;28;20036;-71
2022/08/28 09:29:31;;;;;;;6.18;1.40;;;20.70;99.90;;;;;;5066881;28;19928;-73
2022/08/28 09:32:13;;;;;;;9.52;1.40;;;20.80;99.90;;;;;;5076633;28;20040;-72
2022/08/28 09:34:56;;;;;;;7.22;1.90;;;20.70;99.90;;;;;;5089242;28;20048;-73
2022/08/28 09:37:26;;;;;;;5.70;1.55;;;20.60;99.90;;;;;;5063919;28;20036;-75
2022/08/28 09:40:22;;;;;;;4.85;1.20;;;20.50;99.90;;;;;;5052751;28;20053;-71
2022/08/28 09:46:03;;;;;;;5.80;1.38;;;20.40;99.90;;;;;;5031964;28;20081;-71
2022/08/28 09:48:42;;;;;;;10.20;1.27;;;20.70;99.90;;;;;;5050487;28;20053;-72
2022/08/28 09:51:19;;;;;;;5.15;1.40;;;21.10;99.90;;;;;;5050558;28;20132;-73
2022/08/28 09:54:01;;;;;;;9.32;1.40;;;21.40;99.70;;;;;;5050432;28;20057;-72
2022/08/28 09:56:30;;;;;;;5.18;1.27;;;21.20;98.90;;;;;;5050445;28;20049;-71
2022/08/28 09:59:15;;;;;;;8.90;1.92;;;21.50;99.90;;;;;;5050311;28;20142;-74
2022/08/28 10:01:40;;;;;;;16.13;1.95;;;21.20;99.20;;;;;;5049827;28;20048;-71
2022/08/28 10:04:14;;;;;;;6.68;1.50;;;21.00;99.10;;;;;;5050238;28;20052;-72
2022/08/28 10:06:43;;;;;;;8.25;1.70;;;20.90;99.60;;;;;;5049973;28;20063;-71
2022/08/28 10:09:08;;;;;;;7.82;1.30;;;21.10;99.90;;;;;;5050133;28;20037;-71
2022/08/28 10:12:00;;;;;;;9.25;1.65;;;21.00;99.90;;;;;;5050067;28;20441;-71
2022/08/28 10:14:55;;;;;;;9.48;2.08;;;21.10;99.90;;;;;;5049876;28;20120;-72
2022/08/28 10:17:52;;;;;;;6.93;1.60;;;21.40;99.90;;;;;;5031873;28;20664;-71
2022/08/28 10:20:38;;;;;;;6.95;1.52;;;21.40;99.20;;;;;;5032115;28;20061;-71
2022/08/28 10:23:23;;;;;;;5.53;1.60;;;21.10;99.40;;;;;;5049597;28;20060;-70
2022/08/28 10:26:10;;;;;;;7.75;1.65;;;21.10;99.20;;;;;;5049730;28;20091;-72
2022/08/28 10:28:59;;;;;;;13.68;1.63;;;21.10;99.50;;;;;;5049650;28;20053;-71
2022/08/28 10:31:56;;;;;;;7.63;1.48;;;21.00;99.30;;;;;;5031671;28;20507;-70
2022/08/28 10:34:51;;;;;;;7.38;1.55;;;21.10;99.10;;;;;;5049535;28;20056;-70
2022/08/28 10:37:32;;;;;;;14.13;2.03;;;21.60;99.40;;;;;;4971467;28;20089;-70
2022/08/28 10:40:03;;;;;;;4.13;1.20;;;21.70;99.10;;;;;;4987763;28;20073;-70
2022/08/28 10:42:36;;;;;;;6.32;1.48;;;21.70;99.20;;;;;;4971525;28;20533;-71
2022/08/28 10:45:10;;;;;;;5.18;1.40;;;21.70;99.20;;;;;;4987852;28;20137;-71
2022/08/28 10:47:40;;;;;;;8.10;1.50;;;22.10;99.10;;;;;;4987730;28;20398;-71
2022/08/28 10:50:22;;;;;;;4.85;1.15;;;22.00;98.70;;;;;;4987273;28;20173;-72
2022/08/28 10:52:56;;;;;;;5.80;1.58;;;21.90;98.80;;;;;;4987465;28;20050;-71
2022/08/28 10:55:31;;;;;;;7.45;1.50;;;21.70;98.50;;;;;;4987683;28;20050;-70
2022/08/28 10:58:02;;;;;;;9.43;1.60;;;22.00;98.90;;;;;;4987843;28;20054;-72
2022/08/28 11:00:28;;;;;;;5.95;1.35;;;22.30;98.30;;;;;;4987654;28;20058;-76
2022/08/28 11:03:02;;;;;;;4.32;0.98;;;22.50;97.70;;;;;;4992342;28;20061;-73
2022/08/28 11:05:33;;;;;;;5.55;1.30;;;22.40;96.50;;;;;;4995360;28;20046;-73
2022/08/28 11:08:04;;;;;;;6.47;1.67;;;22.50;97.10;;;;;;4987541;28;20073;-73
2022/08/28 11:10:35;;;;;;;5.55;1.80;;;22.80;96.30;;;;;;4987622;28;20452;-72
2022/08/28 11:13:02;;;;;;;4.05;1.23;;;23.00;95.70;;;;;;5001912;28;20057;-69
2022/08/28 11:15:30;;;;;;;6.53;1.48;;;23.10;96.10;;;;;;5063387;28;20041;-72
2022/08/28 11:18:14;;;;;;;4.85;1.30;;;23.20;95.30;;;;;;5065474;28;20045;-73
2022/08/28 11:21:07;;;;;;;4.15;1.48;;;23.30;95.50;;;;;;5034620;28;20128;-72
2022/08/28 11:24:08;;;;;;;7.10;1.30;;;23.50;94.10;;;;;;5033339;28;20033;-71
2022/08/28 11:27:05;;;;;;;5.05;1.13;;;23.50;94.60;;;;;;4971620;28;20137;-72
2022/08/28 11:29:56;;;;;;;4.55;1.33;;;23.80;94.80;;;;;;4919720;29;20124;-73
2022/08/28 11:32:30;;;;;;;5.88;1.30;;;23.80;94.50;;;;;;4914152;29;20202;-74
2022/08/28 11:35:26;;;;;;;6.22;1.63;;;23.50;93.80;;;;;;4913815;29;20803;-76
2022/08/28 11:37:53;;;;;;;4.63;1.27;;;23.70;94.90;;;;;;4914058;29;20091;-71
2022/08/28 11:40:51;;;;;;;7.47;1.25;;;23.60;94.50;;;;;;4924724;29;20066;-73
2022/08/28 11:43:19;;;;;;;7.50;1.27;;;23.50;94.00;;;;;;4932890;29;20083;-74
2022/08/28 11:45:45;;;;;;;7.50;1.35;;;23.40;94.50;;;;;;4933218;29;20130;-76
2022/08/28 11:48:29;;;;;;;6.20;1.40;;;23.70;94.30;;;;;;4933189;29;20179;-74
2022/08/28 11:51:02;;;;;;;8.77;1.55;;;23.50;93.80;;;;;;4932381;29;20131;-79
2022/08/28 11:53:35;;;;;;;5.13;1.20;;;23.50;94.30;;;;;;4932337;29;20054;-79
2022/08/28 11:56:39;;;;;;;7.95;1.38;;;23.30;94.00;;;;;;4932662;29;20051;-74
2022/08/28 11:59:39;;;;;;;5.85;1.58;;;23.40;94.00;;;;;;4932436;29;20107;-79
2022/08/28 12:02:50;;;;;;;5.05;1.10;;;23.30;93.60;;;;;;4876289;29;20125;-80
2022/08/28 12:05:16;;;;;;;5.07;1.40;;;23.50;93.60;;;;;;4873358;29;20449;-73
2022/08/28 12:07:48;;;;;;;6.40;1.65;;;23.50;94.00;;;;;;4971466;28;20068;-79
2022/08/28 12:10:23;;;;;;;6.25;1.60;;;23.30;93.60;;;;;;4971079;28;20445;-78
2022/08/28 12:12:59;;;;;;;7.25;1.90;;;23.10;93.40;;;;;;4954872;28;20062;-80
2022/08/28 12:15:27;;;;;;;5.13;1.13;;;23.10;93.80;;;;;;4974666;28;20591;-74
2022/08/28 12:18:03;;;;;;;5.38;1.10;;;23.20;93.80;;;;;;4973984;28;20057;-73
2022/08/28 12:20:43;;;;;;;3.95;0.95;;;23.30;93.80;;;;;;4974113;28;20378;-75
2022/08/28 12:23:27;;;;;;;5.25;1.10;;;23.50;93.80;;;;;;4989903;28;20058;-72
2022/08/28 12:26:24;;;;;;;5.22;1.13;;;23.80;93.70;;;;;;4990159;28;20119;-73
2022/08/28 12:28:56;;;;;;;8.02;1.20;;;23.70;92.90;;;;;;4973040;28;20058;-72
2022/08/28 12:34:43;;;;;;;3.65;1.05;;;23.50;93.50;;;;;;4990470;28;20070;-74
2022/08/28 12:37:41;;;;;;;5.38;1.23;;;23.90;93.90;;;;;;4990368;28;20133;-72
2022/08/28 12:40:26;;;;;;;5.40;1.02;;;24.00;92.50;;;;;;4978685;28;20612;-73
2022/08/28 12:43:05;;;;;;;3.65;1.10;;;23.80;93.30;;;;;;4989946;28;20069;-73
2022/08/28 12:45:38;;;;;;;9.82;1.25;;;23.70;93.40;;;;;;4989879;28;20114;-72
2022/08/28 12:48:46;;;;;;;3.83;1.02;;;23.70;93.20;;;;;;4989753;28;20046;-72
2022/08/28 12:51:17;;;;;;;4.88;1.17;;;23.30;92.80;;;;;;4985077;28;20061;-72
2022/08/28 12:53:45;;;;;;;5.75;1.35;;;23.30;93.30;;;;;;4989814;28;20058;-72
2022/08/28 12:56:14;;;;;;;7.40;1.45;;;23.20;93.30;;;;;;5008975;28;20085;-73
2022/08/28 12:58:41;;;;;;;6.53;1.23;;;23.50;93.90;;;;;;5008980;28;20061;-72
2022/08/28 13:01:13;;;;;;;5.63;1.42;;;23.60;93.30;;;;;;5008890;28;20057;-73
2022/08/28 13:03:44;;;;;;;4.90;1.17;;;23.60;93.40;;;;;;5008959;28;20119;-73
2022/08/28 13:06:10;;;;;;;7.72;1.63;;;23.30;93.30;;;;;;5008860;28;20568;-72
2022/08/28 13:08:37;;;;;;;4.20;1.02;;;23.30;93.70;;;;;;5022212;28;20138;-72
2022/08/28 13:11:03;;;;;;;7.35;1.58;;;23.10;93.40;;;;;;5033045;28;20091;-72
2022/08/28 13:13:33;;;;;;;6.15;1.88;;;23.00;93.90;;;;;;5033376;28;20044;-71
2022/08/28 13:16:11;;;;;;;4.22;1.00;;;22.90;94.10;;;;;;5051438;28;20048;-72